sensor_id;sensor_type;location;lat;lon;timestamp;temperature;humidity
25991;DHT22;13779;-33.886;151.198;2023-07-09T00:00:13;15.30;99.90
25991;DHT22;13779;-33.886;151.198;2023-07-09T00:02:45;15.40;99.90
25991;DHT22;13779;-33.886;151.198;2023-07-09T00:05:17;15.50;99.90
25991;DHT22;13779;-33.886;151.198;2023-07-09T00:07:47;15.50;99.90
25991;DHT22;13779;-33.886;151.198;2023-07-09T00:10:20;15.60;99.90
25991;DHT22;13779;-33.886;151.198;2023-07-09T00:12:51;15.60;99.90
25991;DHT22;13779;-33.886;151.198;2023-07-09T00:15:21;15.70;99.90
25991;DHT22;13779;-33.886;151.198;2023-07-09T00:17:52;15.60;99.90
25991;DHT22;13779;-33.886;151.198;2023-07-09T00:20:23;15.70;99.90
25991;DHT22;13779;-33.886;151.198;2023-07-09T00:22:53;15.70;99.90
25991;DHT22;13779;-33.886;151.198;2023-07-09T00:25:24;15.70;99.90
25991;DHT22;13779;-33.886;151.198;2023-07-09T00:27:54;15.80;99.90
25991;DHT22;13779;-33.886;151.198;2023-07-09T00:30:25;15.90;99.90
25991;DHT22;13779;-33.886;151.198;2023-07-09T00:32:58;15.90;99.90
25991;DHT22;13779;-33.886;151.198;2023-07-09T00:35:29;16.00;99.90
25991;DHT22;13779;-33.886;151.198;2023-07-09T00:38:00;16.00;99.90
25991;DHT22;13779;-33.886;151.198;2023-07-09T00:40:31;16.10;99.90
25991;DHT22;13779;-33.886;151.198;2023-07-09T00:43:01;16.20;99.90
25991;DHT22;13779;-33.886;151.198;2023-07-09T00:45:32;16.30;99.90
25991;DHT22;13779;-33.886;151.198;2023-07-09T00:48:09;16.30;99.90
25991;DHT22;13779;-33.886;151.198;2023-07-09T00:50:54;16.30;99.90
25991;DHT22;13779;-33.886;151.198;2023-07-09T00:53:29;16.30;99.90
25991;DHT22;13779;-33.886;151.198;2023-07-09T00:56:08;16.40;99.90
25991;DHT22;13779;-33.886;151.198;2023-07-09T00:58:40;16.40;99.90
25991;DHT22;13779;-33.886;151.198;2023-07-09T01:01:15;16.50;99.90
25991;DHT22;13779;-33.886;151.198;2023-07-09T01:03:51;16.60;99.90
25991;DHT22;13779;-33.886;151.198;2023-07-09T01:06:30;16.70;99.90
25991;DHT22;13779;-33.886;151.198;2023-07-09T01:09:05;16.70;99.90
25991;DHT22;13779;-33.886;151.198;2023-07-09T01:11:39;16.80;99.90
25991;DHT22;13779;-33.886;151.198;2023-07-09T01:14:13;16.80;99.90
25991;DHT22;13779;-33.886;151.198;2023-07-09T01:16:55;16.70;99.90
25991;DHT22;13779;-33.886;151.198;2023-07-09T01:19:29;16.70;99.90
25991;DHT22;13779;-33.886;151.198;2023-07-09T01:22:01;16.80;99.90
25991;DHT22;13779;-33.886;151.198;2023-07-09T01:27:32;16.90;99.90
25991;DHT22;13779;-33.886;151.198;2023-07-09T01:30:09;16.90;99.90
25991;DHT22;13779;-33.886;151.198;2023-07-09T01:32:40;17.00;99.90
25991;DHT22;13779;-33.886;151.198;2023-07-09T01:35:17;17.00;99.90
25991;DHT22;13779;-33.886;151.198;2023-07-09T01:37:49;17.00;99.90
25991;DHT22;13779;-33.886;151.198;2023-07-09T01:40:25;17.00;99.90
25991;DHT22;13779;-33.886;151.198;2023-07-09T01:42:59;17.10;99.90
25991;DHT22;13779;-33.886;151.198;2023-07-09T01:45:33;17.20;99.90
25991;DHT22;13779;-33.886;151.198;2023-07-09T01:48:04;17.20;99.90
25991;DHT22;13779;-33.886;151.198;2023-07-09T01:50:36;17.30;99.90
25991;DHT22;13779;-33.886;151.198;2023-07-09T01:53:14;17.30;99.90
25991;DHT22;13779;-33.886;151.198;2023-07-09T01:55:45;17.40;99.90
25991;DHT22;13779;-33.886;151.198;2023-07-09T01:58:16;17.40;99.90
25991;DHT22;13779;-33.886;151.198;2023-07-09T02:00:47;17.50;99.90
25991;DHT22;13779;-33.886;151.198;2023-07-09T02:03:19;17.50;99.90
25991;DHT22;13779;-33.886;151.198;2023-07-09T02:05:53;17.40;99.90
25991;DHT22;13779;-33.886;151.198;2023-07-09T02:08:24;17.60;99.90
25991;DHT22;13779;-33.886;151.198;2023-07-09T02:10:55;17.60;99.90
25991;DHT22;13779;-33.886;151.198;2023-07-09T02:13:25;17.50;99.90
25991;DHT22;13779;-33.886;151.198;2023-07-09T02:15:56;17.60;99.90
25991;DHT22;13779;-33.886;151.198;2023-07-09T02:18:29;17.60;99.90
25991;DHT22;13779;-33.886;151.198;2023-07-09T02:20:59;17.50;99.90
25991;DHT22;13779;-33.886;151.198;2023-07-09T02:23:30;17.40;99.90
25991;DHT22;13779;-33.886;151.198;2023-07-09T02:26:00;17.50;99.90
25991;DHT22;13779;-33.886;151.198;2023-07-09T02:28:31;17.60;99.90
25991;DHT22;13779;-33.886;151.198;2023-07-09T02:31:01;17.70;99.90
25991;DHT22;13779;-33.886;151.198;2023-07-09T02:33:32;17.70;99.90
25991;DHT22;13779;-33.886;151.198;2023-07-09T02:36:03;17.80;99.90
25991;DHT22;13779;-33.886;151.198;2023-07-09T02:38:33;17.90;99.90
25991;DHT22;13779;-33.886;151.198;2023-07-09T02:41:04;17.90;99.90
25991;DHT22;13779;-33.886;151.198;2023-07-09T02:43:34;18.00;99.90
25991;DHT22;13779;-33.886;151.198;2023-07-09T02:46:06;17.90;99.90
25991;DHT22;13779;-33.886;151.198;2023-07-09T02:48:36;17.90;99.90
25991;DHT22;13779;-33.886;151.198;2023-07-09T02:51:07;18.00;99.90
25991;DHT22;13779;-33.886;151.198;2023-07-09T02:53:37;18.10;99.90
25991;DHT22;13779;-33.886;151.198;2023-07-09T02:56:08;18.20;99.90
25991;DHT22;13779;-33.886;151.198;2023-07-09T02:58:38;18.20;99.90
25991;DHT22;13779;-33.886;151.198;2023-07-09T03:01:09;18.20;99.90
25991;DHT22;13779;-33.886;151.198;2023-07-09T03:03:40;18.30;99.90
25991;DHT22;13779;-33.886;151.198;2023-07-09T03:06:10;18.40;99.90
25991;DHT22;13779;-33.886;151.198;2023-07-09T03:08:41;18.50;99.90
25991;DHT22;13779;-33.886;151.198;2023-07-09T03:11:13;18.50;99.90
25991;DHT22;13779;-33.886;151.198;2023-07-09T03:13:45;18.60;99.90
25991;DHT22;13779;-33.886;151.198;2023-07-09T03:16:16;18.70;99.90
25991;DHT22;13779;-33.886;151.198;2023-07-09T03:18:49;18.80;99.90
25991;DHT22;13779;-33.886;151.198;2023-07-09T03:21:20;18.80;99.90
25991;DHT22;13779;-33.886;151.198;2023-07-09T03:23:51;18.90;99.90
25991;DHT22;13779;-33.886;151.198;2023-07-09T03:26:22;18.90;99.90
25991;DHT22;13779;-33.886;151.198;2023-07-09T03:28:53;19.10;99.90
25991;DHT22;13779;-33.886;151.198;2023-07-09T03:31:24;19.30;99.90
25991;DHT22;13779;-33.886;151.198;2023-07-09T03:33:55;19.50;99.90
25991;DHT22;13779;-33.886;151.198;2023-07-09T03:36:26;19.60;99.90
25991;DHT22;13779;-33.886;151.198;2023-07-09T03:38:56;19.80;99.90
25991;DHT22;13779;-33.886;151.198;2023-07-09T03:41:27;19.80;99.90
25991;DHT22;13779;-33.886;151.198;2023-07-09T03:43:57;20.00;99.90
25991;DHT22;13779;-33.886;151.198;2023-07-09T03:46:28;20.00;99.90
25991;DHT22;13779;-33.886;151.198;2023-07-09T03:49:00;19.90;99.90
25991;DHT22;13779;-33.886;151.198;2023-07-09T03:51:30;19.90;99.90
25991;DHT22;13779;-33.886;151.198;2023-07-09T03:54:01;20.00;99.90
25991;DHT22;13779;-33.886;151.198;2023-07-09T03:56:31;19.90;99.90
25991;DHT22;13779;-33.886;151.198;2023-07-09T03:59:01;19.90;99.90
25991;DHT22;13779;-33.886;151.198;2023-07-09T04:01:32;19.70;99.90
25991;DHT22;13779;-33.886;151.198;2023-07-09T04:04:02;19.80;99.90
25991;DHT22;13779;-33.886;151.198;2023-07-09T04:06:32;20.00;99.90
25991;DHT22;13779;-33.886;151.198;2023-07-09T04:09:03;20.20;99.90
25991;DHT22;13779;-33.886;151.198;2023-07-09T04:11:33;20.00;99.90
25991;DHT22;13779;-33.886;151.198;2023-07-09T04:14:03;20.00;99.90
25991;DHT22;13779;-33.886;151.198;2023-07-09T04:16:34;20.10;99.90
25991;DHT22;13779;-33.886;151.198;2023-07-09T04:19:04;20.00;99.90
25991;DHT22;13779;-33.886;151.198;2023-07-09T04:21:35;20.20;99.90
25991;DHT22;13779;-33.886;151.198;2023-07-09T04:24:05;20.30;99.90
25991;DHT22;13779;-33.886;151.198;2023-07-09T04:26:36;20.40;99.90
25991;DHT22;13779;-33.886;151.198;2023-07-09T04:29:09;20.10;99.90
25991;DHT22;13779;-33.886;151.198;2023-07-09T04:31:41;20.20;99.90
25991;DHT22;13779;-33.886;151.198;2023-07-09T04:34:11;20.10;99.90
25991;DHT22;13779;-33.886;151.198;2023-07-09T04:36:41;20.20;99.90
25991;DHT22;13779;-33.886;151.198;2023-07-09T04:39:12;20.30;99.90
25991;DHT22;13779;-33.886;151.198;2023-07-09T04:41:42;20.40;99.90
25991;DHT22;13779;-33.886;151.198;2023-07-09T04:44:13;20.40;99.90
25991;DHT22;13779;-33.886;151.198;2023-07-09T04:46:43;20.30;99.90
25991;DHT22;13779;-33.886;151.198;2023-07-09T04:49:13;20.20;99.90
25991;DHT22;13779;-33.886;151.198;2023-07-09T04:51:43;20.00;99.90
25991;DHT22;13779;-33.886;151.198;2023-07-09T04:54:14;19.90;99.90
25991;DHT22;13779;-33.886;151.198;2023-07-09T04:56:44;19.70;99.90
25991;DHT22;13779;-33.886;151.198;2023-07-09T04:59:14;19.40;99.90
25991;DHT22;13779;-33.886;151.198;2023-07-09T05:01:45;19.50;99.90
25991;DHT22;13779;-33.886;151.198;2023-07-09T05:04:15;19.40;99.90
25991;DHT22;13779;-33.886;151.198;2023-07-09T05:06:48;19.20;99.90
25991;DHT22;13779;-33.886;151.198;2023-07-09T05:09:19;19.10;99.90
25991;DHT22;13779;-33.886;151.198;2023-07-09T05:11:50;19.00;99.90
25991;DHT22;13779;-33.886;151.198;2023-07-09T05:14:20;18.70;99.90
25991;DHT22;13779;-33.886;151.198;2023-07-09T05:16:51;18.50;99.90
25991;DHT22;13779;-33.886;151.198;2023-07-09T05:19:21;18.40;99.90
25991;DHT22;13779;-33.886;151.198;2023-07-09T05:21:51;18.30;99.90
25991;DHT22;13779;-33.886;151.198;2023-07-09T05:24:22;18.20;99.90
25991;DHT22;13779;-33.886;151.198;2023-07-09T05:26:55;18.10;99.90
25991;DHT22;13779;-33.886;151.198;2023-07-09T05:29:26;18.00;99.90
25991;DHT22;13779;-33.886;151.198;2023-07-09T05:31:56;18.00;99.90
25991;DHT22;13779;-33.886;151.198;2023-07-09T05:34:27;18.00;99.90
25991;DHT22;13779;-33.886;151.198;2023-07-09T05:37:00;18.00;99.90
25991;DHT22;13779;-33.886;151.198;2023-07-09T05:39:30;17.90;99.90
25991;DHT22;13779;-33.886;151.198;2023-07-09T05:42:00;17.90;99.90
25991;DHT22;13779;-33.886;151.198;2023-07-09T05:44:30;17.80;99.90
25991;DHT22;13779;-33.886;151.198;2023-07-09T05:47:00;17.80;99.90
25991;DHT22;13779;-33.886;151.198;2023-07-09T05:49:30;17.80;99.90
25991;DHT22;13779;-33.886;151.198;2023-07-09T05:52:01;17.80;99.90
25991;DHT22;13779;-33.886;151.198;2023-07-09T05:54:31;17.80;99.90
25991;DHT22;13779;-33.886;151.198;2023-07-09T05:57:02;17.70;99.90
25991;DHT22;13779;-33.886;151.198;2023-07-09T05:59:32;17.70;99.90
25991;DHT22;13779;-33.886;151.198;2023-07-09T06:02:03;17.70;99.90
25991;DHT22;13779;-33.886;151.198;2023-07-09T06:04:34;17.60;99.90
25991;DHT22;13779;-33.886;151.198;2023-07-09T06:07:05;17.60;99.90
25991;DHT22;13779;-33.886;151.198;2023-07-09T06:09:36;17.60;99.90
25991;DHT22;13779;-33.886;151.198;2023-07-09T06:12:07;17.60;99.90
25991;DHT22;13779;-33.886;151.198;2023-07-09T06:14:39;17.60;99.90
25991;DHT22;13779;-33.886;151.198;2023-07-09T06:17:10;17.50;99.90
25991;DHT22;13779;-33.886;151.198;2023-07-09T06:19:40;17.50;99.90
25991;DHT22;13779;-33.886;151.198;2023-07-09T06:22:10;17.50;99.90
25991;DHT22;13779;-33.886;151.198;2023-07-09T06:24:40;17.40;99.90
25991;DHT22;13779;-33.886;151.198;2023-07-09T06:27:10;17.30;99.90
25991;DHT22;13779;-33.886;151.198;2023-07-09T06:29:40;17.30;99.90
25991;DHT22;13779;-33.886;151.198;2023-07-09T06:32:11;17.30;99.90
25991;DHT22;13779;-33.886;151.198;2023-07-09T06:34:41;17.30;99.90
25991;DHT22;13779;-33.886;151.198;2023-07-09T06:37:12;17.20;99.90
25991;DHT22;13779;-33.886;151.198;2023-07-09T06:39:42;17.20;99.90
25991;DHT22;13779;-33.886;151.198;2023-07-09T06:42:12;17.10;99.90
25991;DHT22;13779;-33.886;151.198;2023-07-09T06:44:42;17.10;99.90
25991;DHT22;13779;-33.886;151.198;2023-07-09T06:47:12;17.10;99.90
25991;DHT22;13779;-33.886;151.198;2023-07-09T06:49:43;17.00;99.90
25991;DHT22;13779;-33.886;151.198;2023-07-09T06:52:14;17.00;99.90
25991;DHT22;13779;-33.886;151.198;2023-07-09T06:54:45;17.00;99.90
25991;DHT22;13779;-33.886;151.198;2023-07-09T06:57:16;16.90;99.90
25991;DHT22;13779;-33.886;151.198;2023-07-09T06:59:46;16.90;99.90
25991;DHT22;13779;-33.886;151.198;2023-07-09T07:02:17;16.80;99.90
25991;DHT22;13779;-33.886;151.198;2023-07-09T07:04:48;16.80;99.90
25991;DHT22;13779;-33.886;151.198;2023-07-09T07:07:19;16.70;99.90
25991;DHT22;13779;-33.886;151.198;2023-07-09T07:09:49;16.70;99.90
25991;DHT22;13779;-33.886;151.198;2023-07-09T07:12:29;16.70;99.90
25991;DHT22;13779;-33.886;151.198;2023-07-09T07:15:12;16.70;99.90
25991;DHT22;13779;-33.886;151.198;2023-07-09T07:17:43;16.60;99.90
25991;DHT22;13779;-33.886;151.198;2023-07-09T07:20:18;16.60;99.90
25991;DHT22;13779;-33.886;151.198;2023-07-09T07:22:52;16.50;99.90
25991;DHT22;13779;-33.886;151.198;2023-07-09T07:25:23;16.50;99.90
25991;DHT22;13779;-33.886;151.198;2023-07-09T07:27:54;16.50;99.90
25991;DHT22;13779;-33.886;151.198;2023-07-09T07:30:25;16.50;99.90
25991;DHT22;13779;-33.886;151.198;2023-07-09T07:32:56;16.40;99.90
25991;DHT22;13779;-33.886;151.198;2023-07-09T07:35:26;16.30;99.90
25991;DHT22;13779;-33.886;151.198;2023-07-09T07:37:57;16.30;99.90
25991;DHT22;13779;-33.886;151.198;2023-07-09T07:40:28;16.30;99.90
25991;DHT22;13779;-33.886;151.198;2023-07-09T07:42:58;16.30;99.90
25991;DHT22;13779;-33.886;151.198;2023-07-09T07:45:29;16.30;99.90
25991;DHT22;13779;-33.886;151.198;2023-07-09T07:47:59;16.20;99.90
25991;DHT22;13779;-33.886;151.198;2023-07-09T07:50:30;16.20;99.90
25991;DHT22;13779;-33.886;151.198;2023-07-09T07:53:00;16.10;99.90
25991;DHT22;13779;-33.886;151.198;2023-07-09T07:55:30;16.10;99.90
25991;DHT22;13779;-33.886;151.198;2023-07-09T07:58:01;16.10;99.90
25991;DHT22;13779;-33.886;151.198;2023-07-09T08:00:33;16.10;99.90
25991;DHT22;13779;-33.886;151.198;2023-07-09T08:03:04;16.10;99.90
25991;DHT22;13779;-33.886;151.198;2023-07-09T08:05:35;16.00;99.90
25991;DHT22;13779;-33.886;151.198;2023-07-09T08:08:05;16.00;99.90
25991;DHT22;13779;-33.886;151.198;2023-07-09T08:10:35;16.00;99.90
25991;DHT22;13779;-33.886;151.198;2023-07-09T08:13:05;16.00;99.90
25991;DHT22;13779;-33.886;151.198;2023-07-09T08:15:36;15.90;99.90
25991;DHT22;13779;-33.886;151.198;2023-07-09T08:18:06;15.90;99.90
25991;DHT22;13779;-33.886;151.198;2023-07-09T08:20:37;15.80;99.90
25991;DHT22;13779;-33.886;151.198;2023-07-09T08:23:08;15.90;99.90
25991;DHT22;13779;-33.886;151.198;2023-07-09T08:25:38;15.80;99.90
25991;DHT22;13779;-33.886;151.198;2023-07-09T08:28:08;15.70;99.90
25991;DHT22;13779;-33.886;151.198;2023-07-09T08:30:39;15.70;99.90
25991;DHT22;13779;-33.886;151.198;2023-07-09T08:33:09;15.70;99.90
25991;DHT22;13779;-33.886;151.198;2023-07-09T08:35:43;15.70;99.90
25991;DHT22;13779;-33.886;151.198;2023-07-09T08:38:13;15.60;99.90
25991;DHT22;13779;-33.886;151.198;2023-07-09T08:44:22;15.60;99.90
25991;DHT22;13779;-33.886;151.198;2023-07-09T08:47:25;15.60;99.90
25991;DHT22;13779;-33.886;151.198;2023-07-09T08:49:56;15.50;99.90
25991;DHT22;13779;-33.886;151.198;2023-07-09T08:52:37;15.50;99.90
25991;DHT22;13779;-33.886;151.198;2023-07-09T08:55:20;15.50;99.90
25991;DHT22;13779;-33.886;151.198;2023-07-09T08:58:00;15.40;99.90
25991;DHT22;13779;-33.886;151.198;2023-07-09T09:00:53;15.40;99.90
25991;DHT22;13779;-33.886;151.198;2023-07-09T09:06:31;15.40;99.90
25991;DHT22;13779;-33.886;151.198;2023-07-09T09:09:33;15.50;99.90
25991;DHT22;13779;-33.886;151.198;2023-07-09T09:12:25;15.40;99.90
25991;DHT22;13779;-33.886;151.198;2023-07-09T09:15:13;15.40;99.90
25991;DHT22;13779;-33.886;151.198;2023-07-09T09:17:44;15.40;99.90
25991;DHT22;13779;-33.886;151.198;2023-07-09T09:20:20;15.30;99.90
25991;DHT22;13779;-33.886;151.198;2023-07-09T09:23:13;15.20;99.90
25991;DHT22;13779;-33.886;151.198;2023-07-09T09:25:51;15.10;99.90
25991;DHT22;13779;-33.886;151.198;2023-07-09T09:28:39;15.10;99.90
25991;DHT22;13779;-33.886;151.198;2023-07-09T09:31:13;15.10;99.90
25991;DHT22;13779;-33.886;151.198;2023-07-09T09:33:47;15.10;99.90
25991;DHT22;13779;-33.886;151.198;2023-07-09T09:36:22;15.10;99.90
25991;DHT22;13779;-33.886;151.198;2023-07-09T09:38:53;15.00;99.90
25991;DHT22;13779;-33.886;151.198;2023-07-09T09:41:30;14.90;99.90
25991;DHT22;13779;-33.886;151.198;2023-07-09T09:44:01;14.90;99.90
25991;DHT22;13779;-33.886;151.198;2023-07-09T09:46:32;14.90;99.90
25991;DHT22;13779;-33.886;151.198;2023-07-09T09:49:11;14.80;99.90
25991;DHT22;13779;-33.886;151.198;2023-07-09T09:51:44;14.70;99.90
25991;DHT22;13779;-33.886;151.198;2023-07-09T09:54:27;14.60;99.90
25991;DHT22;13779;-33.886;151.198;2023-07-09T09:57:01;14.60;99.90
25991;DHT22;13779;-33.886;151.198;2023-07-09T09:59:32;14.60;99.90
25991;DHT22;13779;-33.886;151.198;2023-07-09T10:02:14;14.70;99.90
25991;DHT22;13779;-33.886;151.198;2023-07-09T10:04:46;14.80;99.90
25991;DHT22;13779;-33.886;151.198;2023-07-09T10:07:45;14.80;99.90
25991;DHT22;13779;-33.886;151.198;2023-07-09T10:10:23;14.80;99.90
25991;DHT22;13779;-33.886;151.198;2023-07-09T10:13:26;14.80;99.90
25991;DHT22;13779;-33.886;151.198;2023-07-09T10:16:21;14.90;99.90
25991;DHT22;13779;-33.886;151.198;2023-07-09T10:24:56;14.80;99.90
25991;DHT22;13779;-33.886;151.198;2023-07-09T10:30:46;14.70;99.90
25991;DHT22;13779;-33.886;151.198;2023-07-09T10:33:45;14.70;99.90
25991;DHT22;13779;-33.886;151.198;2023-07-09T10:36:24;14.70;99.90
25991;DHT22;13779;-33.886;151.198;2023-07-09T10:39:14;14.70;99.90
25991;DHT22;13779;-33.886;151.198;2023-07-09T10:41:49;14.60;99.90
25991;DHT22;13779;-33.886;151.198;2023-07-09T10:44:36;14.50;99.90
25991;DHT22;13779;-33.886;151.198;2023-07-09T10:47:25;14.50;99.90
25991;DHT22;13779;-33.886;151.198;2023-07-09T10:49:58;14.60;99.90
25991;DHT22;13779;-33.886;151.198;2023-07-09T10:52:34;14.50;99.90
25991;DHT22;13779;-33.886;151.198;2023-07-09T10:55:47;14.40;99.90
25991;DHT22;13779;-33.886;151.198;2023-07-09T10:58:35;14.40;99.90
25991;DHT22;13779;-33.886;151.198;2023-07-09T11:01:14;14.40;99.90
25991;DHT22;13779;-33.886;151.198;2023-07-09T11:03:56;14.40;99.90
25991;DHT22;13779;-33.886;151.198;2023-07-09T11:06:50;14.50;99.90
25991;DHT22;13779;-33.886;151.198;2023-07-09T11:09:29;14.50;99.90
25991;DHT22;13779;-33.886;151.198;2023-07-09T11:12:15;14.50;99.90
25991;DHT22;13779;-33.886;151.198;2023-07-09T11:15:01;14.50;99.90
25991;DHT22;13779;-33.886;151.198;2023-07-09T11:17:34;14.40;99.90
25991;DHT22;13779;-33.886;151.198;2023-07-09T11:20:34;14.40;99.90
25991;DHT22;13779;-33.886;151.198;2023-07-09T11:23:17;14.40;99.90
25991;DHT22;13779;-33.886;151.198;2023-07-09T11:26:35;14.40;99.90
25991;DHT22;13779;-33.886;151.198;2023-07-09T11:28:47;14.40;99.90
25991;DHT22;13779;-33.886;151.198;2023-07-09T11:31:24;14.40;99.90
25991;DHT22;13779;-33.886;151.198;2023-07-09T11:34:18;14.40;99.90
25991;DHT22;13779;-33.886;151.198;2023-07-09T11:42:29;14.10;99.90
25991;DHT22;13779;-33.886;151.198;2023-07-09T11:45:15;14.10;99.90
25991;DHT22;13779;-33.886;151.198;2023-07-09T11:48:16;14.10;99.90
25991;DHT22;13779;-33.886;151.198;2023-07-09T11:50:52;14.20;99.90
25991;DHT22;13779;-33.886;151.198;2023-07-09T11:55:57;14.00;99.90
25991;DHT22;13779;-33.886;151.198;2023-07-09T11:58:28;14.10;99.90
25991;DHT22;13779;-33.886;151.198;2023-07-09T12:01:02;14.00;99.90
25991;DHT22;13779;-33.886;151.198;2023-07-09T12:03:36;14.00;99.90
25991;DHT22;13779;-33.886;151.198;2023-07-09T12:06:22;13.90;99.90
25991;DHT22;13779;-33.886;151.198;2023-07-09T12:08:53;13.90;99.90
25991;DHT22;13779;-33.886;151.198;2023-07-09T12:14:09;13.80;99.90
25991;DHT22;13779;-33.886;151.198;2023-07-09T12:16:46;13.80;99.90
25991;DHT22;13779;-33.886;151.198;2023-07-09T12:19:19;13.80;99.90
25991;DHT22;13779;-33.886;151.198;2023-07-09T12:21:56;13.80;99.90
25991;DHT22;13779;-33.886;151.198;2023-07-09T12:24:35;13.80;99.90
25991;DHT22;13779;-33.886;151.198;2023-07-09T12:27:22;13.70;99.90
25991;DHT22;13779;-33.886;151.198;2023-07-09T12:29:56;13.70;99.90
25991;DHT22;13779;-33.886;151.198;2023-07-09T12:32:27;13.80;99.90
25991;DHT22;13779;-33.886;151.198;2023-07-09T12:34:57;13.80;99.90
25991;DHT22;13779;-33.886;151.198;2023-07-09T12:37:28;13.80;99.90
25991;DHT22;13779;-33.886;151.198;2023-07-09T12:40:01;13.80;99.90
25991;DHT22;13779;-33.886;151.198;2023-07-09T12:42:36;13.80;99.90
25991;DHT22;13779;-33.886;151.198;2023-07-09T12:45:15;13.80;99.90
25991;DHT22;13779;-33.886;151.198;2023-07-09T12:47:49;13.80;99.90
25991;DHT22;13779;-33.886;151.198;2023-07-09T12:50:33;13.80;99.90
25991;DHT22;13779;-33.886;151.198;2023-07-09T12:53:16;13.80;99.90
25991;DHT22;13779;-33.886;151.198;2023-07-09T12:55:48;13.80;99.90
25991;DHT22;13779;-33.886;151.198;2023-07-09T12:58:36;13.80;99.90
25991;DHT22;13779;-33.886;151.198;2023-07-09T13:01:16;13.80;99.90
25991;DHT22;13779;-33.886;151.198;2023-07-09T13:03:57;13.80;99.90
25991;DHT22;13779;-33.886;151.198;2023-07-09T13:06:35;13.80;99.90
25991;DHT22;13779;-33.886;151.198;2023-07-09T13:09:29;13.80;99.90
25991;DHT22;13779;-33.886;151.198;2023-07-09T13:12:04;13.80;99.90
25991;DHT22;13779;-33.886;151.198;2023-07-09T13:14:35;13.80;99.90
25991;DHT22;13779;-33.886;151.198;2023-07-09T13:17:08;13.80;99.90
25991;DHT22;13779;-33.886;151.198;2023-07-09T13:19:44;13.90;99.90
25991;DHT22;13779;-33.886;151.198;2023-07-09T13:22:16;13.70;99.90
25991;DHT22;13779;-33.886;151.198;2023-07-09T13:24:47;13.80;99.90
25991;DHT22;13779;-33.886;151.198;2023-07-09T13:27:20;13.90;99.90
25991;DHT22;13779;-33.886;151.198;2023-07-09T13:29:50;13.90;99.90
25991;DHT22;13779;-33.886;151.198;2023-07-09T13:32:23;13.80;99.90
25991;DHT22;13779;-33.886;151.198;2023-07-09T13:34:54;13.90;99.90
25991;DHT22;13779;-33.886;151.198;2023-07-09T13:37:28;13.80;99.90
25991;DHT22;13779;-33.886;151.198;2023-07-09T13:40:02;13.80;99.90
25991;DHT22;13779;-33.886;151.198;2023-07-09T13:42:39;13.80;99.90
25991;DHT22;13779;-33.886;151.198;2023-07-09T13:45:19;13.80;99.90
25991;DHT22;13779;-33.886;151.198;2023-07-09T13:48:02;13.80;99.90
25991;DHT22;13779;-33.886;151.198;2023-07-09T13:50:34;13.70;99.90
25991;DHT22;13779;-33.886;151.198;2023-07-09T13:53:13;13.70;99.90
25991;DHT22;13779;-33.886;151.198;2023-07-09T13:55:46;13.70;99.90
25991;DHT22;13779;-33.886;151.198;2023-07-09T13:58:19;13.70;99.90
25991;DHT22;13779;-33.886;151.198;2023-07-09T14:00:59;13.70;99.90
25991;DHT22;13779;-33.886;151.198;2023-07-09T14:03:36;13.70;99.90
25991;DHT22;13779;-33.886;151.198;2023-07-09T14:06:16;13.70;99.90
25991;DHT22;13779;-33.886;151.198;2023-07-09T14:08:49;13.70;99.90
25991;DHT22;13779;-33.886;151.198;2023-07-09T14:11:24;13.70;99.90
25991;DHT22;13779;-33.886;151.198;2023-07-09T14:13:55;13.70;99.90
25991;DHT22;13779;-33.886;151.198;2023-07-09T14:16:27;13.70;99.90
25991;DHT22;13779;-33.886;151.198;2023-07-09T14:18:58;13.60;99.90
25991;DHT22;13779;-33.886;151.198;2023-07-09T14:21:28;13.60;99.90
25991;DHT22;13779;-33.886;151.198;2023-07-09T14:24:04;13.70;99.90
25991;DHT22;13779;-33.886;151.198;2023-07-09T14:26:41;13.70;99.90
25991;DHT22;13779;-33.886;151.198;2023-07-09T14:29:14;13.70;99.90
25991;DHT22;13779;-33.886;151.198;2023-07-09T14:31:47;13.70;99.90
25991;DHT22;13779;-33.886;151.198;2023-07-09T14:34:24;13.60;99.90
25991;DHT22;13779;-33.886;151.198;2023-07-09T14:36:58;13.60;99.90
25991;DHT22;13779;-33.886;151.198;2023-07-09T14:39:31;13.60;99.90
25991;DHT22;13779;-33.886;151.198;2023-07-09T14:42:02;13.40;99.90
25991;DHT22;13779;-33.886;151.198;2023-07-09T14:44:33;13.40;99.90
25991;DHT22;13779;-33.886;151.198;2023-07-09T14:47:15;13.40;99.90
25991;DHT22;13779;-33.886;151.198;2023-07-09T14:49:46;13.30;99.90
25991;DHT22;13779;-33.886;151.198;2023-07-09T14:52:18;13.40;99.90
25991;DHT22;13779;-33.886;151.198;2023-07-09T14:54:50;13.40;99.90
25991;DHT22;13779;-33.886;151.198;2023-07-09T14:57:24;13.40;99.90
25991;DHT22;13779;-33.886;151.198;2023-07-09T14:59:56;13.30;99.90
25991;DHT22;13779;-33.886;151.198;2023-07-09T15:02:37;13.30;99.90
25991;DHT22;13779;-33.886;151.198;2023-07-09T15:05:17;13.30;99.90
25991;DHT22;13779;-33.886;151.198;2023-07-09T15:07:51;13.30;99.90
25991;DHT22;13779;-33.886;151.198;2023-07-09T15:10:24;13.20;99.90
25991;DHT22;13779;-33.886;151.198;2023-07-09T15:12:56;13.20;99.90
25991;DHT22;13779;-33.886;151.198;2023-07-09T15:15:30;13.30;99.90
25991;DHT22;13779;-33.886;151.198;2023-07-09T15:18:08;13.20;99.90
25991;DHT22;13779;-33.886;151.198;2023-07-09T15:20:42;13.20;99.90
25991;DHT22;13779;-33.886;151.198;2023-07-09T15:23:13;13.10;99.90
25991;DHT22;13779;-33.886;151.198;2023-07-09T15:25:44;13.20;99.90
25991;DHT22;13779;-33.886;151.198;2023-07-09T15:28:14;13.20;99.90
25991;DHT22;13779;-33.886;151.198;2023-07-09T15:30:45;13.20;99.90
25991;DHT22;13779;-33.886;151.198;2023-07-09T15:33:18;13.10;99.90
25991;DHT22;13779;-33.886;151.198;2023-07-09T15:35:52;13.00;99.90
25991;DHT22;13779;-33.886;151.198;2023-07-09T15:38:28;13.00;99.90
25991;DHT22;13779;-33.886;151.198;2023-07-09T15:40:59;13.00;99.90
25991;DHT22;13779;-33.886;151.198;2023-07-09T15:43:30;12.90;99.90
25991;DHT22;13779;-33.886;151.198;2023-07-09T15:46:01;12.90;99.90
25991;DHT22;13779;-33.886;151.198;2023-07-09T15:48:35;13.00;99.90
25991;DHT22;13779;-33.886;151.198;2023-07-09T15:51:07;13.00;99.90
25991;DHT22;13779;-33.886;151.198;2023-07-09T15:53:38;13.00;99.90
25991;DHT22;13779;-33.886;151.198;2023-07-09T15:56:30;13.10;99.90
25991;DHT22;13779;-33.886;151.198;2023-07-09T15:59:02;13.10;99.90